createdAt,value
2023-04-07T00:02:12.886Z,99.71
2023-04-07T00:04:40.751Z,99.35
2023-04-07T00:07:08.551Z,99.54
2023-04-07T00:09:36.802Z,99.10
2023-04-07T00:12:04.630Z,99.11
2023-04-07T00:14:32.330Z,98.60
2023-04-07T00:17:01.415Z,98.75
2023-04-07T00:19:29.152Z,98.91
2023-04-07T00:21:56.802Z,99.07
2023-04-07T00:24:33.772Z,99.32
2023-04-07T00:27:02.280Z,99.38
2023-04-07T00:29:30.108Z,99.88
2023-04-07T00:31:57.877Z,100.00
2023-04-07T00:34:26.979Z,99.84
2023-04-07T00:36:54.767Z,100.00
2023-04-07T00:39:22.617Z,100.00
2023-04-07T00:41:51.420Z,99.83
2023-04-07T00:44:19.059Z,99.82
2023-04-07T00:46:49.067Z,99.84
2023-04-07T00:49:17.879Z,99.82
2023-04-07T00:51:47.480Z,99.43
2023-04-07T00:54:16.046Z,100.00
2023-04-07T00:56:43.936Z,100.00
2023-04-07T00:59:11.709Z,100.00
2023-04-07T01:01:46.807Z,100.00
2023-04-07T01:04:24.426Z,100.00
2023-04-07T01:06:58.164Z,100.00
2023-04-07T01:09:31.817Z,100.00
2023-04-07T01:12:06.795Z,100.00
2023-04-07T01:14:41.362Z,100.00
2023-04-07T01:17:12.848Z,100.00
2023-04-07T01:19:44.921Z,100.00
2023-04-07T01:22:17.748Z,100.00
2023-04-07T01:25:02.468Z,99.99
2023-04-07T01:27:37.752Z,99.93
2023-04-07T01:30:11.565Z,99.57
2023-04-07T01:32:41.807Z,99.20
2023-04-07T01:35:13.522Z,99.40
2023-04-07T01:37:42.178Z,99.42
2023-04-07T01:40:11.113Z,99.62
2023-04-07T01:42:40.630Z,99.70
2023-04-07T01:45:11.527Z,99.38
2023-04-07T01:47:40.452Z,99.59
2023-04-07T01:50:09.892Z,99.51
2023-04-07T01:52:38.961Z,99.56
2023-04-07T01:55:07.824Z,99.53
2023-04-07T01:57:35.468Z,99.42
2023-04-07T02:00:03.251Z,99.57
2023-04-07T02:02:34.951Z,99.54
2023-04-07T02:05:06.678Z,99.73
2023-04-07T02:07:48.115Z,99.96
2023-04-07T02:10:18.521Z,99.89
2023-04-07T02:12:47.206Z,100.00
2023-04-07T02:15:16.436Z,100.00
2023-04-07T02:17:49.251Z,100.00
2023-04-07T02:20:18.537Z,100.00
2023-04-07T02:22:46.281Z,100.00
2023-04-07T02:25:24.900Z,100.00
2023-04-07T02:27:52.677Z,99.99
2023-04-07T02:30:21.106Z,100.00
2023-04-07T02:32:50.454Z,99.95
2023-04-07T02:35:18.204Z,99.83
2023-04-07T02:37:47.043Z,100.00
2023-04-07T02:40:14.922Z,99.72
2023-04-07T02:42:42.728Z,99.71
2023-04-07T02:45:11.662Z,100.00
2023-04-07T02:47:40.171Z,99.76
2023-04-07T02:50:10.163Z,100.00
2023-04-07T02:52:37.862Z,100.00
2023-04-07T02:55:06.863Z,100.00
2023-04-07T02:57:34.495Z,100.00
2023-04-07T03:00:02.227Z,100.00
2023-04-07T03:02:30.086Z,100.00
2023-04-07T03:04:57.938Z,100.00
2023-04-07T03:07:26.985Z,100.00
2023-04-07T03:09:54.647Z,100.00
2023-04-07T03:12:22.355Z,100.00
2023-04-07T03:14:50.081Z,100.00
2023-04-07T03:17:17.865Z,100.00
2023-04-07T03:19:46.973Z,100.00
2023-04-07T03:22:14.705Z,100.00
2023-04-07T03:24:43.756Z,100.00
2023-04-07T03:27:11.568Z,100.00
2023-04-07T03:29:39.205Z,100.00
2023-04-07T03:32:06.871Z,100.00
2023-04-07T03:34:34.597Z,100.00
2023-04-07T03:37:02.233Z,100.00
2023-04-07T03:39:29.921Z,99.94
2023-04-07T03:41:59.220Z,99.67
2023-04-07T03:44:26.910Z,99.77
2023-04-07T03:46:54.648Z,99.81
2023-04-07T03:49:22.384Z,99.76
2023-04-07T03:51:50.036Z,99.70
2023-04-07T03:54:17.746Z,99.88
2023-04-07T03:56:45.904Z,99.77
2023-04-07T03:59:14.979Z,100.00
2023-04-07T04:01:42.813Z,99.80
2023-04-07T04:04:10.821Z,100.00
2023-04-07T04:06:38.484Z,100.00
2023-04-07T04:09:06.296Z,100.00
2023-04-07T04:11:33.954Z,100.00
2023-04-07T04:14:01.747Z,99.59
2023-04-07T04:16:31.761Z,99.48
2023-04-07T04:18:59.600Z,99.48
2023-04-07T04:21:27.803Z,99.44
2023-04-07T04:23:55.512Z,99.19
2023-04-07T04:26:25.964Z,98.97
2023-04-07T04:28:53.901Z,99.19
2023-04-07T04:31:21.803Z,99.31
2023-04-07T04:33:51.065Z,99.40
2023-04-07T04:36:18.828Z,99.69
2023-04-07T04:38:46.639Z,99.56
2023-04-07T04:41:14.334Z,99.74
2023-04-07T04:43:42.512Z,99.98
2023-04-07T04:46:10.509Z,100.00
2023-04-07T04:48:38.184Z,100.00
2023-04-07T04:51:08.495Z,100.00
2023-04-07T04:53:36.158Z,100.00
2023-04-07T04:56:03.863Z,100.00
2023-04-07T04:58:31.529Z,100.00
2023-04-07T05:01:00.444Z,100.00
2023-04-07T05:03:29.362Z,100.00
2023-04-07T05:05:57.256Z,100.00
2023-04-07T05:08:26.419Z,100.00
2023-04-07T05:10:55.162Z,100.00
2023-04-07T05:13:22.824Z,100.00
2023-04-07T05:15:50.599Z,100.00
2023-04-07T05:18:18.466Z,100.00
2023-04-07T05:20:46.218Z,100.00
2023-04-07T05:23:13.959Z,100.00
2023-04-07T05:25:43.057Z,100.00
2023-04-07T05:28:10.928Z,100.00
2023-04-07T05:30:38.711Z,100.00
2023-04-07T05:33:06.531Z,100.00
2023-04-07T05:35:34.249Z,100.00
2023-04-07T05:38:01.905Z,100.00
2023-04-07T05:40:30.231Z,100.00
2023-04-07T05:42:59.247Z,100.00
2023-04-07T05:45:26.904Z,100.00
2023-04-07T05:47:54.714Z,100.00
2023-04-07T05:50:22.415Z,100.00
2023-04-07T05:52:50.091Z,100.00
2023-04-07T05:55:17.880Z,100.00
2023-04-07T05:57:45.585Z,100.00
2023-04-07T06:00:16.076Z,100.00
2023-04-07T06:02:43.900Z,100.00
2023-04-07T06:05:11.700Z,100.00
2023-04-07T06:07:39.430Z,100.00
2023-04-07T06:10:08.726Z,99.87
2023-04-07T06:12:36.374Z,100.00
2023-04-07T06:15:04.515Z,100.00
2023-04-07T06:17:33.556Z,100.00
2023-04-07T06:20:01.279Z,100.00
2023-04-07T06:22:29.024Z,99.96
2023-04-07T06:24:56.662Z,99.95
2023-04-07T06:27:24.308Z,99.77
2023-04-07T06:29:52.032Z,99.75
2023-04-07T06:32:20.237Z,99.74
2023-04-07T06:34:49.307Z,99.96
2023-04-07T06:37:17.188Z,100.00
2023-04-07T06:39:45.434Z,99.69
2023-04-07T06:42:13.092Z,99.89
2023-04-07T06:44:40.833Z,99.66
2023-04-07T06:47:09.128Z,99.24
2023-04-07T06:49:37.338Z,98.92
2023-04-07T06:52:06.776Z,98.89
2023-04-07T06:54:34.655Z,98.90
2023-04-07T06:57:02.750Z,99.35
2023-04-07T06:59:30.440Z,99.13
2023-04-07T07:01:58.124Z,99.19
2023-04-07T07:04:26.876Z,99.47
2023-04-07T07:06:55.939Z,99.95
2023-04-07T07:09:25.044Z,99.67
2023-04-07T07:11:52.740Z,99.37
2023-04-07T07:14:20.519Z,99.35
2023-04-07T07:16:48.218Z,97.93
2023-04-07T07:19:16.252Z,96.70
2023-04-07T07:21:43.927Z,95.72
2023-04-07T07:24:11.649Z,94.94
2023-04-07T07:26:43.493Z,94.13
2023-04-07T07:29:12.018Z,92.86
2023-04-07T07:31:39.736Z,91.92
2023-04-07T07:34:07.697Z,91.67
2023-04-07T07:36:35.618Z,91.18
2023-04-07T07:39:03.398Z,91.63
2023-04-07T07:41:31.325Z,89.02
2023-04-07T07:44:00.406Z,88.44
2023-04-07T07:46:28.181Z,87.30
2023-04-07T07:48:56.224Z,87.65
2023-04-07T07:51:23.887Z,87.65
2023-04-07T07:53:52.606Z,87.30
2023-04-07T07:56:20.485Z,85.99
2023-04-07T07:58:48.193Z,86.48
2023-04-07T08:01:17.278Z,85.45
2023-04-07T08:03:45.794Z,85.98
2023-04-07T08:06:16.654Z,85.09
2023-04-07T08:08:44.334Z,85.25
2023-04-07T08:11:12.049Z,86.06
2023-04-07T08:13:39.966Z,84.48
2023-04-07T08:16:08.143Z,83.36
2023-04-07T08:18:37.396Z,82.14
2023-04-07T08:21:05.714Z,82.71
2023-04-07T08:23:33.457Z,83.39
2023-04-07T08:26:01.286Z,83.48
2023-04-07T08:28:29.016Z,83.58
2023-04-07T08:30:56.794Z,82.26
2023-04-07T08:33:24.599Z,79.82
2023-04-07T08:35:53.719Z,78.53
2023-04-07T08:38:21.353Z,78.00
2023-04-07T08:40:50.798Z,78.07
2023-04-07T08:43:21.123Z,78.38
2023-04-07T08:45:50.421Z,78.25
2023-04-07T08:48:19.686Z,78.27
2023-04-07T08:50:52.649Z,79.13
2023-04-07T08:53:25.245Z,78.17
2023-04-07T08:55:53.912Z,77.52
2023-04-07T08:58:22.781Z,78.10
2023-04-07T09:00:50.994Z,77.99
2023-04-07T09:03:19.469Z,76.14
2023-04-07T09:05:47.894Z,76.34
2023-04-07T09:08:15.715Z,76.25
2023-04-07T09:10:44.876Z,76.19
2023-04-07T09:13:12.595Z,76.71
2023-04-07T09:15:41.381Z,76.24
2023-04-07T09:18:09.150Z,76.62
2023-04-07T09:20:56.350Z,76.38
2023-04-07T09:23:32.161Z,76.58
2023-04-07T09:26:19.732Z,77.41
2023-04-07T09:28:49.162Z,77.69
2023-04-07T09:31:16.910Z,77.60
2023-04-07T09:33:44.665Z,78.61
2023-04-07T09:36:12.747Z,79.99
2023-04-07T09:38:42.222Z,81.45
2023-04-07T09:41:13.260Z,82.51
2023-04-07T09:43:42.846Z,82.62
2023-04-07T09:46:12.055Z,81.98
2023-04-07T09:48:40.330Z,81.95
2023-04-07T09:51:09.949Z,80.23
2023-04-07T09:53:44.254Z,79.28
2023-04-07T09:56:13.664Z,79.68
2023-04-07T09:58:41.876Z,77.03
2023-04-07T10:01:10.796Z,76.03
2023-04-07T10:03:39.513Z,75.23
2023-04-07T10:06:08.159Z,74.43
2023-04-07T10:08:38.123Z,73.65
2023-04-07T10:11:07.169Z,72.11
2023-04-07T10:13:37.533Z,68.96
2023-04-07T10:16:07.170Z,69.16
2023-04-07T10:18:36.898Z,67.67
2023-04-07T10:21:08.119Z,68.08
2023-04-07T10:23:50.283Z,66.23
2023-04-07T10:26:20.841Z,64.97
2023-04-07T10:28:54.788Z,63.35
2023-04-07T10:31:24.126Z,63.87
2023-04-07T10:33:53.347Z,63.69
2023-04-07T10:36:22.041Z,64.70
2023-04-07T10:39:21.320Z,65.19
2023-04-07T10:41:49.104Z,64.89
2023-04-07T10:44:50.618Z,62.71
2023-04-07T10:47:18.541Z,64.26
2023-04-07T10:50:20.180Z,66.25
2023-04-07T10:52:48.602Z,65.54
2023-04-07T10:55:37.718Z,66.26
2023-04-07T10:58:18.936Z,66.99
2023-04-07T11:01:22.241Z,68.13
2023-04-07T11:04:00.183Z,66.78
2023-04-07T11:06:28.565Z,67.22
2023-04-07T11:08:56.452Z,67.77
2023-04-07T11:11:39.432Z,67.28
2023-04-07T11:14:07.216Z,68.17
2023-04-07T11:16:45.429Z,69.70
2023-04-07T11:19:13.476Z,69.29
2023-04-07T11:21:41.193Z,70.12
2023-04-07T11:24:08.937Z,70.33
2023-04-07T11:26:41.541Z,69.93
2023-04-07T11:29:10.456Z,70.42
2023-04-07T11:31:39.970Z,70.58
2023-04-07T11:34:08.867Z,70.60
2023-04-07T11:36:41.603Z,71.25
2023-04-07T11:39:20.088Z,70.52
2023-04-07T11:41:48.791Z,68.17
2023-04-07T11:44:16.561Z,67.82
2023-04-07T11:46:55.527Z,68.47
2023-04-07T11:49:24.986Z,69.72
2023-04-07T11:52:00.819Z,69.43
2023-04-07T11:54:28.663Z,70.05
2023-04-07T11:56:56.566Z,70.07
2023-04-07T11:59:25.603Z,71.14
2023-04-07T12:01:57.496Z,68.00
2023-04-07T12:04:26.229Z,67.34
2023-04-07T12:06:54.144Z,70.06
2023-04-07T12:09:31.725Z,70.47
2023-04-07T12:11:59.944Z,70.32
2023-04-07T12:14:28.479Z,69.47
2023-04-07T12:16:58.315Z,68.12
2023-04-07T12:19:29.872Z,67.51
2023-04-07T12:21:57.987Z,69.19
2023-04-07T12:24:25.669Z,69.23
2023-04-07T12:26:53.483Z,69.31
2023-04-07T12:29:21.261Z,67.69
2023-04-07T12:31:51.112Z,65.93
2023-04-07T12:34:20.694Z,65.15
2023-04-07T12:36:48.382Z,65.32
2023-04-07T12:39:17.224Z,64.21
2023-04-07T12:41:46.128Z,63.58
2023-04-07T12:44:13.922Z,61.78
2023-04-07T12:46:42.429Z,61.29
2023-04-07T12:49:10.441Z,60.67
2023-04-07T12:51:40.203Z,62.23
2023-04-07T12:54:08.691Z,62.32
2023-04-07T12:56:36.669Z,63.26
2023-04-07T12:59:04.416Z,63.71
2023-04-07T13:01:33.090Z,64.28
2023-04-07T13:04:00.920Z,65.21
2023-04-07T13:06:28.790Z,66.75
2023-04-07T13:08:57.798Z,68.93
2023-04-07T13:11:25.666Z,71.82
2023-04-07T13:13:55.570Z,73.07
2023-04-07T13:16:24.487Z,73.85
2023-04-07T13:18:52.212Z,74.17
2023-04-07T13:21:44.238Z,74.64
2023-04-07T13:24:09.196Z,76.07
2023-04-07T13:26:37.123Z,77.50
2023-04-07T13:29:04.844Z,76.06
2023-04-07T13:31:32.702Z,76.75
2023-04-07T13:34:00.379Z,76.47
2023-04-07T13:36:28.455Z,77.10
2023-04-07T13:38:56.780Z,78.57
2023-04-07T13:41:26.757Z,77.74
2023-04-07T13:43:54.449Z,78.65
2023-04-07T13:46:28.638Z,78.66
2023-04-07T13:48:57.098Z,78.74
2023-04-07T13:51:24.985Z,79.41
2023-04-07T13:53:52.688Z,80.40
2023-04-07T13:56:20.401Z,81.55
2023-04-07T13:58:49.477Z,81.08
2023-04-07T14:01:17.270Z,81.07
2023-04-07T14:03:45.276Z,81.85
2023-04-07T14:06:13.197Z,82.42
2023-04-07T14:08:40.921Z,81.34
2023-04-07T14:11:08.542Z,81.87
2023-04-07T14:13:36.484Z,80.86
2023-04-07T14:16:06.202Z,82.53
2023-04-07T14:18:33.901Z,81.47
2023-04-07T14:21:01.783Z,80.29
2023-04-07T14:23:36.753Z,80.98
2023-04-07T14:26:05.262Z,80.00
2023-04-07T14:28:33.168Z,80.11
2023-04-07T14:31:01.027Z,81.43
2023-04-07T14:33:30.400Z,81.99
2023-04-07T14:35:58.475Z,83.37
2023-04-07T14:38:26.215Z,81.68
2023-04-07T14:40:54.108Z,81.69
2023-04-07T14:43:21.827Z,81.19
2023-04-07T14:45:49.528Z,81.71
2023-04-07T14:48:17.656Z,82.45
2023-04-07T14:50:47.653Z,81.71
2023-04-07T14:53:15.940Z,81.76
2023-04-07T14:55:43.693Z,82.90
2023-04-07T14:58:11.420Z,82.15
2023-04-07T15:00:39.255Z,81.69
2023-04-07T15:03:07.097Z,81.13
2023-04-07T15:05:34.957Z,80.97
2023-04-07T15:08:04.011Z,80.51
2023-04-07T15:10:35.460Z,80.31
2023-04-07T15:13:03.658Z,77.96
2023-04-07T15:15:31.341Z,77.38
2023-04-07T15:17:59.881Z,77.03
2023-04-07T15:20:27.975Z,77.61
2023-04-07T15:22:57.396Z,77.83
2023-04-07T15:25:26.477Z,78.00
2023-04-07T15:27:54.205Z,78.31
2023-04-07T15:30:22.055Z,78.27
2023-04-07T15:33:00.378Z,77.82
2023-04-07T15:35:28.705Z,78.35
2023-04-07T15:37:56.508Z,78.28
2023-04-07T15:40:26.376Z,77.82
2023-04-07T15:42:54.101Z,77.82
2023-04-07T15:45:22.025Z,77.44
2023-04-07T15:47:49.774Z,77.55
2023-04-07T15:50:17.619Z,75.88
2023-04-07T15:52:45.491Z,75.71
2023-04-07T15:55:13.186Z,76.40
2023-04-07T15:57:42.296Z,76.43
2023-04-07T16:00:10.700Z,76.64
2023-04-07T16:02:38.572Z,77.12
2023-04-07T16:05:08.088Z,76.74
2023-04-07T16:07:36.393Z,76.07
2023-04-07T16:10:08.080Z,75.58
2023-04-07T16:12:36.854Z,76.22
2023-04-07T16:15:07.412Z,76.75
2023-04-07T16:17:35.277Z,77.22
2023-04-07T16:20:03.960Z,77.93
2023-04-07T16:22:31.681Z,78.30
2023-04-07T16:24:59.420Z,78.70
2023-04-07T16:27:27.179Z,78.49
2023-04-07T16:29:54.882Z,78.12
2023-04-07T16:32:23.972Z,77.39
2023-04-07T16:34:51.724Z,77.58
2023-04-07T16:37:19.452Z,77.93
2023-04-07T16:39:47.180Z,77.68
2023-04-07T16:42:14.861Z,78.07
2023-04-07T16:44:42.600Z,78.33
2023-04-07T16:47:10.358Z,77.70
2023-04-07T16:49:39.411Z,77.65
2023-04-07T16:52:07.152Z,76.61
2023-04-07T16:54:35.510Z,76.33
2023-04-07T16:57:03.194Z,77.15
2023-04-07T16:59:31.910Z,77.30
2023-04-07T17:01:59.625Z,77.36
2023-04-07T17:04:27.601Z,77.24
2023-04-07T17:06:56.724Z,76.92
2023-04-07T17:09:24.464Z,76.50
2023-04-07T17:11:52.162Z,76.59
2023-04-07T17:14:19.952Z,76.73
2023-04-07T17:16:47.616Z,76.80
2023-04-07T17:19:15.380Z,77.86
2023-04-07T17:21:43.085Z,78.52
2023-04-07T17:24:12.962Z,78.11
2023-04-07T17:26:40.737Z,78.17
2023-04-07T17:29:08.489Z,77.95
2023-04-07T17:31:36.509Z,78.19
2023-04-07T17:34:04.480Z,78.07
2023-04-07T17:36:33.253Z,78.37
2023-04-07T17:39:01.331Z,79.18
2023-04-07T17:41:31.224Z,79.66
2023-04-07T17:43:58.951Z,79.40
2023-04-07T17:46:27.317Z,78.93
2023-04-07T17:48:57.576Z,78.77
2023-04-07T17:51:25.846Z,78.85
2023-04-07T17:53:53.884Z,78.26
2023-04-07T17:56:22.098Z,78.77
2023-04-07T17:58:51.595Z,79.13
2023-04-07T18:01:19.415Z,79.86
2023-04-07T18:03:48.463Z,79.53
2023-04-07T18:06:17.510Z,79.73
2023-04-07T18:08:46.574Z,79.67
2023-04-07T18:11:14.413Z,79.77
2023-04-07T18:13:42.239Z,80.27
2023-04-07T18:16:13.251Z,81.20
2023-04-07T18:18:41.617Z,81.12
2023-04-07T18:21:09.392Z,81.31
2023-04-07T18:23:37.073Z,81.54
2023-04-07T18:26:07.910Z,82.08
2023-04-07T18:28:36.038Z,82.26
2023-04-07T18:31:07.033Z,83.10
2023-04-07T18:33:36.960Z,83.69
2023-04-07T18:36:07.160Z,84.01
2023-04-07T18:38:35.445Z,84.56
2023-04-07T18:41:04.988Z,84.95
2023-04-07T18:43:32.847Z,85.18
2023-04-07T18:46:00.635Z,85.55
2023-04-07T18:48:28.493Z,85.93
2023-04-07T18:50:57.706Z,86.29
2023-04-07T18:53:26.519Z,86.89
2023-04-07T18:55:54.312Z,87.44
2023-04-07T18:58:22.107Z,87.72
2023-04-07T19:00:52.948Z,87.84
2023-04-07T19:03:21.675Z,88.14
2023-04-07T19:05:52.596Z,88.40
2023-04-07T19:08:22.098Z,88.23
2023-04-07T19:10:51.073Z,88.28
2023-04-07T19:13:19.994Z,88.26
2023-04-07T19:15:47.850Z,88.26
2023-04-07T19:18:15.938Z,88.49
2023-04-07T19:20:43.990Z,88.73
2023-04-07T19:23:11.777Z,89.00
2023-04-07T19:25:44.359Z,88.99
2023-04-07T19:28:13.562Z,89.00
2023-04-07T19:30:41.396Z,88.99
2023-04-07T19:33:09.152Z,88.79
2023-04-07T19:35:39.041Z,88.42
2023-04-07T19:38:07.284Z,88.53
2023-04-07T19:40:35.483Z,88.34
2023-04-07T19:43:04.673Z,88.39
2023-04-07T19:45:32.370Z,88.11
2023-04-07T19:48:00.383Z,87.96
2023-04-07T19:50:28.492Z,88.17
2023-04-07T19:52:56.377Z,87.90
2023-04-07T19:55:24.438Z,88.04
2023-04-07T19:57:52.165Z,87.63
2023-04-07T20:00:21.695Z,88.12
2023-04-07T20:02:50.202Z,87.80
2023-04-07T20:05:19.519Z,88.13
2023-04-07T20:07:47.496Z,88.16
2023-04-07T20:10:15.780Z,88.53
2023-04-07T20:12:43.457Z,88.69
2023-04-07T20:15:11.971Z,89.01
2023-04-07T20:17:41.349Z,89.27
2023-04-07T20:20:09.628Z,89.97
2023-04-07T20:22:37.452Z,90.18
2023-04-07T20:25:05.934Z,90.43
2023-04-07T20:27:33.704Z,90.95
2023-04-07T20:30:01.995Z,90.71
2023-04-07T20:32:29.981Z,90.86
2023-04-07T20:34:59.189Z,91.16
2023-04-07T20:37:27.786Z,91.29
2023-04-07T20:39:56.134Z,91.42
2023-04-07T20:42:23.956Z,91.93
2023-04-07T20:44:53.271Z,91.72
2023-04-07T20:47:21.145Z,91.79
2023-04-07T20:49:48.955Z,91.73
2023-04-07T20:52:18.659Z,92.15
2023-04-07T20:54:47.771Z,92.07
2023-04-07T20:57:16.027Z,92.18
2023-04-07T20:59:43.710Z,92.09
2023-04-07T21:02:11.793Z,92.20
2023-04-07T21:04:39.998Z,92.20
2023-04-07T21:07:07.693Z,92.36
2023-04-07T21:09:36.734Z,92.35
2023-04-07T21:12:04.663Z,92.49
2023-04-07T21:14:32.736Z,92.57
2023-04-07T21:17:00.636Z,92.43
2023-04-07T21:19:28.287Z,92.70
2023-04-07T21:21:56.450Z,92.67
2023-04-07T21:24:24.604Z,92.75
2023-04-07T21:26:54.573Z,92.95
2023-04-07T21:29:22.910Z,93.13
2023-04-07T21:31:50.763Z,92.73
2023-04-07T21:34:18.470Z,92.98
2023-04-07T21:36:46.200Z,92.95
2023-04-07T21:39:14.043Z,93.01
2023-04-07T21:41:41.938Z,93.01
2023-04-07T21:44:12.956Z,92.92
2023-04-07T21:46:41.137Z,92.45
2023-04-07T21:49:08.904Z,92.84
2023-04-07T21:51:37.438Z,93.05
2023-04-07T21:54:05.096Z,93.12
2023-04-07T21:56:32.980Z,93.23
2023-04-07T21:59:00.671Z,93.68
2023-04-07T22:01:29.922Z,93.93
2023-04-07T22:03:57.893Z,93.91
2023-04-07T22:06:26.687Z,94.23
2023-04-07T22:09:01.216Z,94.24
2023-04-07T22:11:30.464Z,94.07
2023-04-07T22:13:58.104Z,94.38
2023-04-07T22:16:26.049Z,94.44
2023-04-07T22:18:55.472Z,94.33
2023-04-07T22:21:23.255Z,94.60
2023-04-07T22:23:50.999Z,94.76
2023-04-07T22:26:18.642Z,95.01
2023-04-07T22:28:46.602Z,94.89
2023-04-07T22:31:14.380Z,94.80
2023-04-07T22:33:42.193Z,94.90
2023-04-07T22:36:11.236Z,95.01
2023-04-07T22:38:38.960Z,95.59
2023-04-07T22:41:06.728Z,95.84
2023-04-07T22:43:34.408Z,95.92
2023-04-07T22:46:02.138Z,96.25
2023-04-07T22:48:29.839Z,96.59
2023-04-07T22:50:57.439Z,96.79
2023-04-07T22:53:26.464Z,96.68
2023-04-07T22:55:54.198Z,96.74
2023-04-07T22:58:21.879Z,96.89
2023-04-07T23:00:49.644Z,96.71
2023-04-07T23:03:17.428Z,96.71
2023-04-07T23:05:45.245Z,96.43
2023-04-07T23:08:12.898Z,96.57
2023-04-07T23:10:41.869Z,96.07
2023-04-07T23:13:09.551Z,95.92
2023-04-07T23:15:37.186Z,95.88
2023-04-07T23:18:04.866Z,95.86
2023-04-07T23:20:32.542Z,96.03
2023-04-07T23:23:00.252Z,95.84
2023-04-07T23:25:28.413Z,95.80
2023-04-07T23:27:57.554Z,95.58
2023-04-07T23:30:25.655Z,95.42
2023-04-07T23:32:54.245Z,95.22
2023-04-07T23:35:21.956Z,95.60
2023-04-07T23:37:49.678Z,95.36
2023-04-07T23:40:17.630Z,95.32
2023-04-07T23:42:45.590Z,95.16
2023-04-07T23:45:14.806Z,95.26
2023-04-07T23:47:42.474Z,95.21
2023-04-07T23:50:10.520Z,94.87
2023-04-07T23:52:38.260Z,95.01
2023-04-07T23:55:06.643Z,94.90
2023-04-07T23:57:34.398Z,95.25
